sensor_id;sensor_type;location;lat;lon;timestamp;temperature;humidity
33564;DHT22;19894;48.452;11.494;2023-04-03T00:01:10;18.30;40.30
33564;DHT22;19894;48.452;11.494;2023-04-03T00:03:36;18.30;40.30
33564;DHT22;19894;48.452;11.494;2023-04-03T00:06:03;18.30;40.20
33564;DHT22;19894;48.452;11.494;2023-04-03T00:08:28;18.30;40.10
33564;DHT22;19894;48.452;11.494;2023-04-03T00:10:56;18.30;40.10
33564;DHT22;19894;48.452;11.494;2023-04-03T00:13:23;18.30;40.60
33564;DHT22;19894;48.452;11.494;2023-04-03T00:15:48;18.30;40.00
33564;DHT22;19894;48.452;11.494;2023-04-03T00:18:14;18.30;39.90
33564;DHT22;19894;48.452;11.494;2023-04-03T00:20:40;18.30;39.90
33564;DHT22;19894;48.452;11.494;2023-04-03T00:23:06;18.30;39.90
33564;DHT22;19894;48.452;11.494;2023-04-03T00:25:32;18.30;39.80
33564;DHT22;19894;48.452;11.494;2023-04-03T00:27:57;18.30;39.80
33564;DHT22;19894;48.452;11.494;2023-04-03T00:30:23;18.30;39.80
33564;DHT22;19894;48.452;11.494;2023-04-03T00:32:49;18.30;39.90
33564;DHT22;19894;48.452;11.494;2023-04-03T00:35:15;18.30;39.90
33564;DHT22;19894;48.452;11.494;2023-04-03T00:37:42;18.30;40.00
33564;DHT22;19894;48.452;11.494;2023-04-03T00:40:09;18.30;39.90
33564;DHT22;19894;48.452;11.494;2023-04-03T00:42:36;18.30;39.90
33564;DHT22;19894;48.452;11.494;2023-04-03T00:47:30;18.30;39.90
33564;DHT22;19894;48.452;11.494;2023-04-03T00:49:56;18.30;39.90
33564;DHT22;19894;48.452;11.494;2023-04-03T00:52:26;18.30;40.00
33564;DHT22;19894;48.452;11.494;2023-04-03T00:54:54;18.30;40.00
33564;DHT22;19894;48.452;11.494;2023-04-03T00:57:22;18.30;40.00
33564;DHT22;19894;48.452;11.494;2023-04-03T00:59:53;18.30;40.00
33564;DHT22;19894;48.452;11.494;2023-04-03T01:02:19;18.30;40.00
33564;DHT22;19894;48.452;11.494;2023-04-03T01:04:45;18.30;40.00
33564;DHT22;19894;48.452;11.494;2023-04-03T01:07:18;18.30;40.00
33564;DHT22;19894;48.452;11.494;2023-04-03T01:09:47;18.30;40.00
33564;DHT22;19894;48.452;11.494;2023-04-03T01:14:51;18.30;39.80
33564;DHT22;19894;48.452;11.494;2023-04-03T01:25:33;18.30;39.50
33564;DHT22;19894;48.452;11.494;2023-04-03T01:28:00;18.30;39.40
33564;DHT22;19894;48.452;11.494;2023-04-03T01:30:33;18.30;39.30
33564;DHT22;19894;48.452;11.494;2023-04-03T01:32:59;18.30;39.40
33564;DHT22;19894;48.452;11.494;2023-04-03T01:35:25;18.30;39.40
33564;DHT22;19894;48.452;11.494;2023-04-03T01:37:50;18.30;39.40
33564;DHT22;19894;48.452;11.494;2023-04-03T01:40:16;18.30;39.30
33564;DHT22;19894;48.452;11.494;2023-04-03T01:42:42;18.20;39.30
33564;DHT22;19894;48.452;11.494;2023-04-03T01:45:08;18.30;39.40
33564;DHT22;19894;48.452;11.494;2023-04-03T01:47:34;18.30;39.40
33564;DHT22;19894;48.452;11.494;2023-04-03T01:49:59;18.30;39.40
33564;DHT22;19894;48.452;11.494;2023-04-03T01:52:25;18.30;39.40
33564;DHT22;19894;48.452;11.494;2023-04-03T01:54:50;18.30;39.50
33564;DHT22;19894;48.452;11.494;2023-04-03T01:57:16;18.30;39.60
33564;DHT22;19894;48.452;11.494;2023-04-03T01:59:42;18.30;39.50
33564;DHT22;19894;48.452;11.494;2023-04-03T02:02:07;18.30;39.50
33564;DHT22;19894;48.452;11.494;2023-04-03T02:04:33;18.30;39.50
33564;DHT22;19894;48.452;11.494;2023-04-03T02:06:59;18.30;39.50
33564;DHT22;19894;48.452;11.494;2023-04-03T02:09:24;18.30;39.50
33564;DHT22;19894;48.452;11.494;2023-04-03T02:11:50;18.30;39.50
33564;DHT22;19894;48.452;11.494;2023-04-03T02:14:15;18.30;39.40
33564;DHT22;19894;48.452;11.494;2023-04-03T02:16:41;18.30;39.40
33564;DHT22;19894;48.452;11.494;2023-04-03T02:19:07;18.30;39.30
33564;DHT22;19894;48.452;11.494;2023-04-03T02:21:32;18.30;39.20
33564;DHT22;19894;48.452;11.494;2023-04-03T02:23:58;18.30;39.00
33564;DHT22;19894;48.452;11.494;2023-04-03T02:26:23;18.30;39.00
33564;DHT22;19894;48.452;11.494;2023-04-03T02:28:50;18.30;38.90
33564;DHT22;19894;48.452;11.494;2023-04-03T02:31:15;18.30;38.70
33564;DHT22;19894;48.452;11.494;2023-04-03T02:33:41;18.30;38.70
33564;DHT22;19894;48.452;11.494;2023-04-03T02:36:07;18.30;38.80
33564;DHT22;19894;48.452;11.494;2023-04-03T02:38:33;18.30;39.00
33564;DHT22;19894;48.452;11.494;2023-04-03T02:41:08;18.30;39.10
33564;DHT22;19894;48.452;11.494;2023-04-03T02:43:34;18.30;39.10
33564;DHT22;19894;48.452;11.494;2023-04-03T02:46:00;18.30;39.20
33564;DHT22;19894;48.452;11.494;2023-04-03T02:48:26;18.30;39.20
33564;DHT22;19894;48.452;11.494;2023-04-03T02:50:52;18.30;39.20
33564;DHT22;19894;48.452;11.494;2023-04-03T02:53:18;18.30;39.30
33564;DHT22;19894;48.452;11.494;2023-04-03T02:55:44;18.30;39.30
33564;DHT22;19894;48.452;11.494;2023-04-03T02:58:10;18.30;39.40
33564;DHT22;19894;48.452;11.494;2023-04-03T03:00:36;18.30;39.40
33564;DHT22;19894;48.452;11.494;2023-04-03T03:03:02;18.30;39.30
33564;DHT22;19894;48.452;11.494;2023-04-03T03:05:28;18.30;39.30
33564;DHT22;19894;48.452;11.494;2023-04-03T03:07:54;18.30;39.20
33564;DHT22;19894;48.452;11.494;2023-04-03T03:10:20;18.30;39.30
33564;DHT22;19894;48.452;11.494;2023-04-03T03:12:45;18.30;39.30
33564;DHT22;19894;48.452;11.494;2023-04-03T03:15:11;18.30;39.30
33564;DHT22;19894;48.452;11.494;2023-04-03T03:17:37;18.30;39.20
33564;DHT22;19894;48.452;11.494;2023-04-03T03:20:04;18.30;39.70
33564;DHT22;19894;48.452;11.494;2023-04-03T03:22:30;18.30;39.10
33564;DHT22;19894;48.452;11.494;2023-04-03T03:24:55;18.30;39.00
33564;DHT22;19894;48.452;11.494;2023-04-03T03:27:21;18.30;39.00
33564;DHT22;19894;48.452;11.494;2023-04-03T03:29:47;18.30;39.10
33564;DHT22;19894;48.452;11.494;2023-04-03T03:32:12;18.30;38.90
33564;DHT22;19894;48.452;11.494;2023-04-03T03:34:38;18.30;38.90
33564;DHT22;19894;48.452;11.494;2023-04-03T03:37:03;18.30;38.80
33564;DHT22;19894;48.452;11.494;2023-04-03T03:39:29;18.30;38.90
33564;DHT22;19894;48.452;11.494;2023-04-03T03:41:55;18.30;39.00
33564;DHT22;19894;48.452;11.494;2023-04-03T03:44:21;18.30;39.00
33564;DHT22;19894;48.452;11.494;2023-04-03T03:46:46;18.40;39.20
33564;DHT22;19894;48.452;11.494;2023-04-03T03:49:12;18.30;39.30
33564;DHT22;19894;48.452;11.494;2023-04-03T03:51:39;18.30;39.20
33564;DHT22;19894;48.452;11.494;2023-04-03T03:54:04;18.30;39.30
33564;DHT22;19894;48.452;11.494;2023-04-03T03:56:30;18.30;39.30
33564;DHT22;19894;48.452;11.494;2023-04-03T03:58:56;18.30;39.20
33564;DHT22;19894;48.452;11.494;2023-04-03T04:01:23;18.30;39.30
33564;DHT22;19894;48.452;11.494;2023-04-03T04:03:49;18.40;39.30
33564;DHT22;19894;48.452;11.494;2023-04-03T04:06:15;18.40;38.70
33564;DHT22;19894;48.452;11.494;2023-04-03T04:08:40;18.30;38.50
33564;DHT22;19894;48.452;11.494;2023-04-03T04:11:06;18.30;38.70
33564;DHT22;19894;48.452;11.494;2023-04-03T04:13:32;18.30;38.80
33564;DHT22;19894;48.452;11.494;2023-04-03T04:15:58;18.40;39.00
33564;DHT22;19894;48.452;11.494;2023-04-03T04:18:23;18.40;38.80
33564;DHT22;19894;48.452;11.494;2023-04-03T04:20:50;18.40;38.90
33564;DHT22;19894;48.452;11.494;2023-04-03T04:23:16;18.40;39.10
33564;DHT22;19894;48.452;11.494;2023-04-03T04:25:44;18.30;38.80
33564;DHT22;19894;48.452;11.494;2023-04-03T04:28:11;18.40;39.00
33564;DHT22;19894;48.452;11.494;2023-04-03T04:30:36;18.40;39.10
33564;DHT22;19894;48.452;11.494;2023-04-03T04:33:02;18.40;39.10
33564;DHT22;19894;48.452;11.494;2023-04-03T04:35:28;18.40;38.90
33564;DHT22;19894;48.452;11.494;2023-04-03T04:37:53;18.40;39.00
33564;DHT22;19894;48.452;11.494;2023-04-03T04:40:19;18.30;38.70
33564;DHT22;19894;48.452;11.494;2023-04-03T04:42:44;18.40;39.00
33564;DHT22;19894;48.452;11.494;2023-04-03T04:45:10;18.40;39.10
33564;DHT22;19894;48.452;11.494;2023-04-03T04:47:36;18.40;39.20
33564;DHT22;19894;48.452;11.494;2023-04-03T04:50:02;18.40;39.20
33564;DHT22;19894;48.452;11.494;2023-04-03T04:52:27;18.40;39.20
33564;DHT22;19894;48.452;11.494;2023-04-03T04:54:53;18.40;39.30
33564;DHT22;19894;48.452;11.494;2023-04-03T04:57:18;18.30;39.20
33564;DHT22;19894;48.452;11.494;2023-04-03T04:59:44;18.40;39.20
33564;DHT22;19894;48.452;11.494;2023-04-03T05:02:09;18.40;39.10
33564;DHT22;19894;48.452;11.494;2023-04-03T05:04:35;18.40;39.10
33564;DHT22;19894;48.452;11.494;2023-04-03T05:07:00;18.40;38.60
33564;DHT22;19894;48.452;11.494;2023-04-03T05:09:26;18.40;37.90
33564;DHT22;19894;48.452;11.494;2023-04-03T05:11:51;18.40;37.60
33564;DHT22;19894;48.452;11.494;2023-04-03T05:14:17;18.40;37.70
33564;DHT22;19894;48.452;11.494;2023-04-03T05:16:43;18.40;37.60
33564;DHT22;19894;48.452;11.494;2023-04-03T05:19:08;18.40;37.60
33564;DHT22;19894;48.452;11.494;2023-04-03T05:21:34;18.40;37.50
33564;DHT22;19894;48.452;11.494;2023-04-03T05:24:00;18.40;37.60
33564;DHT22;19894;48.452;11.494;2023-04-03T05:26:28;18.40;37.40
33564;DHT22;19894;48.452;11.494;2023-04-03T05:28:54;18.40;37.40
33564;DHT22;19894;48.452;11.494;2023-04-03T05:31:19;18.40;37.50
33564;DHT22;19894;48.452;11.494;2023-04-03T05:33:45;18.40;37.50
33564;DHT22;19894;48.452;11.494;2023-04-03T05:36:12;18.40;37.60
33564;DHT22;19894;48.452;11.494;2023-04-03T05:38:38;18.40;37.50
33564;DHT22;19894;48.452;11.494;2023-04-03T05:41:04;18.40;37.60
33564;DHT22;19894;48.452;11.494;2023-04-03T05:43:30;18.40;37.60
33564;DHT22;19894;48.452;11.494;2023-04-03T05:45:55;18.40;38.30
33564;DHT22;19894;48.452;11.494;2023-04-03T05:48:21;18.40;38.40
33564;DHT22;19894;48.452;11.494;2023-04-03T05:50:47;18.40;38.80
33564;DHT22;19894;48.452;11.494;2023-04-03T05:53:21;18.40;38.90
33564;DHT22;19894;48.452;11.494;2023-04-03T05:55:48;18.40;39.00
33564;DHT22;19894;48.452;11.494;2023-04-03T05:58:14;18.40;39.00
33564;DHT22;19894;48.452;11.494;2023-04-03T06:00:40;18.40;39.00
33564;DHT22;19894;48.452;11.494;2023-04-03T06:03:05;18.40;38.90
33564;DHT22;19894;48.452;11.494;2023-04-03T06:05:31;18.40;39.10
33564;DHT22;19894;48.452;11.494;2023-04-03T06:07:57;18.40;39.00
33564;DHT22;19894;48.452;11.494;2023-04-03T06:10:23;18.40;38.90
33564;DHT22;19894;48.452;11.494;2023-04-03T06:12:49;18.40;39.10
33564;DHT22;19894;48.452;11.494;2023-04-03T06:15:15;18.40;38.30
33564;DHT22;19894;48.452;11.494;2023-04-03T06:17:42;18.40;37.70
33564;DHT22;19894;48.452;11.494;2023-04-03T06:20:09;18.40;37.60
33564;DHT22;19894;48.452;11.494;2023-04-03T06:22:35;18.40;37.70
33564;DHT22;19894;48.452;11.494;2023-04-03T06:25:00;18.40;37.60
33564;DHT22;19894;48.452;11.494;2023-04-03T06:27:26;18.40;37.70
33564;DHT22;19894;48.452;11.494;2023-04-03T06:29:51;18.40;37.40
33564;DHT22;19894;48.452;11.494;2023-04-03T06:32:17;18.40;37.40
33564;DHT22;19894;48.452;11.494;2023-04-03T06:34:43;18.40;37.80
33564;DHT22;19894;48.452;11.494;2023-04-03T06:37:19;18.40;37.60
33564;DHT22;19894;48.452;11.494;2023-04-03T06:39:45;18.40;37.90
33564;DHT22;19894;48.452;11.494;2023-04-03T06:42:11;18.40;37.70
33564;DHT22;19894;48.452;11.494;2023-04-03T06:44:37;18.40;37.90
33564;DHT22;19894;48.452;11.494;2023-04-03T06:47:02;18.40;37.70
33564;DHT22;19894;48.452;11.494;2023-04-03T06:49:28;18.40;37.90
33564;DHT22;19894;48.452;11.494;2023-04-03T06:51:54;18.40;38.20
33564;DHT22;19894;48.452;11.494;2023-04-03T06:54:22;18.40;38.50
33564;DHT22;19894;48.452;11.494;2023-04-03T06:56:48;18.40;38.50
33564;DHT22;19894;48.452;11.494;2023-04-03T06:59:14;18.40;38.70
33564;DHT22;19894;48.452;11.494;2023-04-03T07:01:40;18.40;38.70
33564;DHT22;19894;48.452;11.494;2023-04-03T07:04:07;18.40;38.80
33564;DHT22;19894;48.452;11.494;2023-04-03T07:06:34;18.40;38.80
33564;DHT22;19894;48.452;11.494;2023-04-03T07:09:00;18.40;38.80
33564;DHT22;19894;48.452;11.494;2023-04-03T07:11:26;18.40;38.80
33564;DHT22;19894;48.452;11.494;2023-04-03T07:13:52;18.40;38.80
33564;DHT22;19894;48.452;11.494;2023-04-03T07:16:19;18.40;38.60
33564;DHT22;19894;48.452;11.494;2023-04-03T07:18:44;18.40;37.90
33564;DHT22;19894;48.452;11.494;2023-04-03T07:21:10;18.40;37.70
33564;DHT22;19894;48.452;11.494;2023-04-03T07:23:37;18.40;37.50
33564;DHT22;19894;48.452;11.494;2023-04-03T07:26:03;18.40;37.80
33564;DHT22;19894;48.452;11.494;2023-04-03T07:28:28;18.40;37.50
33564;DHT22;19894;48.452;11.494;2023-04-03T07:31:06;18.40;38.20
33564;DHT22;19894;48.452;11.494;2023-04-03T07:33:34;18.40;38.50
33564;DHT22;19894;48.452;11.494;2023-04-03T07:36:01;18.40;38.40
33564;DHT22;19894;48.452;11.494;2023-04-03T07:38:27;18.40;38.30
33564;DHT22;19894;48.452;11.494;2023-04-03T07:40:53;18.40;38.00
33564;DHT22;19894;48.452;11.494;2023-04-03T07:43:20;18.40;37.90
33564;DHT22;19894;48.452;11.494;2023-04-03T07:45:47;18.40;37.90
33564;DHT22;19894;48.452;11.494;2023-04-03T07:48:16;18.40;38.30
33564;DHT22;19894;48.452;11.494;2023-04-03T07:50:43;18.40;38.30
33564;DHT22;19894;48.452;11.494;2023-04-03T07:53:08;18.40;38.30
33564;DHT22;19894;48.452;11.494;2023-04-03T07:55:34;18.40;38.40
33564;DHT22;19894;48.452;11.494;2023-04-03T07:58:02;18.40;38.40
33564;DHT22;19894;48.452;11.494;2023-04-03T08:00:28;18.40;38.40
33564;DHT22;19894;48.452;11.494;2023-04-03T08:02:54;18.40;38.50
33564;DHT22;19894;48.452;11.494;2023-04-03T08:05:21;18.40;38.60
33564;DHT22;19894;48.452;11.494;2023-04-03T08:07:47;18.40;38.60
33564;DHT22;19894;48.452;11.494;2023-04-03T08:10:13;18.40;38.60
33564;DHT22;19894;48.452;11.494;2023-04-03T08:12:39;18.40;38.60
33564;DHT22;19894;48.452;11.494;2023-04-03T08:15:05;18.40;38.70
33564;DHT22;19894;48.452;11.494;2023-04-03T08:17:32;18.40;38.70
33564;DHT22;19894;48.452;11.494;2023-04-03T08:19:57;18.40;38.70
33564;DHT22;19894;48.452;11.494;2023-04-03T08:22:23;18.40;38.60
33564;DHT22;19894;48.452;11.494;2023-04-03T08:24:49;18.40;38.60
33564;DHT22;19894;48.452;11.494;2023-04-03T08:27:14;18.40;38.40
33564;DHT22;19894;48.452;11.494;2023-04-03T08:29:40;18.40;38.20
33564;DHT22;19894;48.452;11.494;2023-04-03T08:32:06;18.40;37.90
33564;DHT22;19894;48.452;11.494;2023-04-03T08:34:31;18.40;37.70
33564;DHT22;19894;48.452;11.494;2023-04-03T08:37:00;18.40;37.90
33564;DHT22;19894;48.452;11.494;2023-04-03T08:39:26;18.40;38.00
33564;DHT22;19894;48.452;11.494;2023-04-03T08:41:55;18.40;38.10
33564;DHT22;19894;48.452;11.494;2023-04-03T08:49:37;18.40;38.10
33564;DHT22;19894;48.452;11.494;2023-04-03T08:52:14;18.40;38.20
33564;DHT22;19894;48.452;11.494;2023-04-03T08:57:14;18.40;38.20
33564;DHT22;19894;48.452;11.494;2023-04-03T08:59:40;18.40;37.90
33564;DHT22;19894;48.452;11.494;2023-04-03T09:02:28;18.40;37.90
33564;DHT22;19894;48.452;11.494;2023-04-03T09:04:54;18.40;37.90
33564;DHT22;19894;48.452;11.494;2023-04-03T09:07:39;18.40;37.90
33564;DHT22;19894;48.452;11.494;2023-04-03T09:10:07;18.40;38.10
33564;DHT22;19894;48.452;11.494;2023-04-03T09:12:46;18.40;38.30
33564;DHT22;19894;48.452;11.494;2023-04-03T09:15:20;18.40;38.40
33564;DHT22;19894;48.452;11.494;2023-04-03T09:21:01;18.40;39.00
33564;DHT22;19894;48.452;11.494;2023-04-03T09:26:18;18.40;38.40
33564;DHT22;19894;48.452;11.494;2023-04-03T09:28:46;18.40;38.30
33564;DHT22;19894;48.452;11.494;2023-04-03T09:31:18;18.40;37.60
33564;DHT22;19894;48.452;11.494;2023-04-03T09:33:45;18.40;37.50
33564;DHT22;19894;48.452;11.494;2023-04-03T09:36:11;18.40;37.50
33564;DHT22;19894;48.452;11.494;2023-04-03T09:38:37;18.40;37.40
33564;DHT22;19894;48.452;11.494;2023-04-03T09:43:33;18.40;37.50
33564;DHT22;19894;48.452;11.494;2023-04-03T09:46:31;18.40;37.90
33564;DHT22;19894;48.452;11.494;2023-04-03T09:49:03;18.40;37.70
33564;DHT22;19894;48.452;11.494;2023-04-03T09:51:30;18.40;37.50
33564;DHT22;19894;48.452;11.494;2023-04-03T09:53:57;18.40;37.70
33564;DHT22;19894;48.452;11.494;2023-04-03T09:56:29;18.40;37.40
33564;DHT22;19894;48.452;11.494;2023-04-03T10:01:38;18.40;37.90
33564;DHT22;19894;48.452;11.494;2023-04-03T10:04:12;18.40;37.20
33564;DHT22;19894;48.452;11.494;2023-04-03T10:06:44;18.40;37.50
33564;DHT22;19894;48.452;11.494;2023-04-03T10:12:01;18.40;37.80
33564;DHT22;19894;48.452;11.494;2023-04-03T10:14:28;18.40;37.90
33564;DHT22;19894;48.452;11.494;2023-04-03T10:19:47;18.40;37.90
33564;DHT22;19894;48.452;11.494;2023-04-03T10:27:56;18.40;38.00
33564;DHT22;19894;48.452;11.494;2023-04-03T10:30:59;18.40;38.10
33564;DHT22;19894;48.452;11.494;2023-04-03T10:41:44;18.40;37.20
33564;DHT22;19894;48.452;11.494;2023-04-03T10:44:40;18.40;37.40
33564;DHT22;19894;48.452;11.494;2023-04-03T10:49:56;18.40;37.50
33564;DHT22;19894;48.452;11.494;2023-04-03T10:52:30;18.40;37.50
33564;DHT22;19894;48.452;11.494;2023-04-03T10:57:33;18.40;37.10
33564;DHT22;19894;48.452;11.494;2023-04-03T11:00:05;18.40;37.10
33564;DHT22;19894;48.452;11.494;2023-04-03T11:02:45;18.40;37.20
33564;DHT22;19894;48.452;11.494;2023-04-03T11:07:50;18.40;37.50
33564;DHT22;19894;48.452;11.494;2023-04-03T11:10:39;18.40;37.00
33564;DHT22;19894;48.452;11.494;2023-04-03T11:13:35;18.40;37.10
33564;DHT22;19894;48.452;11.494;2023-04-03T11:16:03;18.30;37.30
33564;DHT22;19894;48.452;11.494;2023-04-03T11:18:41;18.40;37.30
33564;DHT22;19894;48.452;11.494;2023-04-03T11:21:18;18.40;37.40
33564;DHT22;19894;48.452;11.494;2023-04-03T11:23:47;18.40;37.40
33564;DHT22;19894;48.452;11.494;2023-04-03T11:26:22;18.40;37.60
33564;DHT22;19894;48.452;11.494;2023-04-03T11:28:53;18.40;37.50
33564;DHT22;19894;48.452;11.494;2023-04-03T11:36:58;18.40;37.50
33564;DHT22;19894;48.452;11.494;2023-04-03T11:39:33;18.40;36.70
33564;DHT22;19894;48.452;11.494;2023-04-03T11:44:47;18.40;37.30
33564;DHT22;19894;48.452;11.494;2023-04-03T11:47:46;18.40;37.20
33564;DHT22;19894;48.452;11.494;2023-04-03T12:16:06;18.40;36.40
33564;DHT22;19894;48.452;11.494;2023-04-03T12:46:02;18.30;36.70
33564;DHT22;19894;48.452;11.494;2023-04-03T12:48:30;18.40;36.60
33564;DHT22;19894;48.452;11.494;2023-04-03T12:50:57;18.40;36.60
33564;DHT22;19894;48.452;11.494;2023-04-03T12:53:33;18.40;36.60
33564;DHT22;19894;48.452;11.494;2023-04-03T12:56:39;18.40;36.50
33564;DHT22;19894;48.452;11.494;2023-04-03T12:59:22;18.30;36.30
33564;DHT22;19894;48.452;11.494;2023-04-03T13:01:58;18.40;36.20
33564;DHT22;19894;48.452;11.494;2023-04-03T13:04:26;18.40;35.80
33564;DHT22;19894;48.452;11.494;2023-04-03T13:06:52;18.40;35.80
33564;DHT22;19894;48.452;11.494;2023-04-03T13:09:27;18.40;35.40
33564;DHT22;19894;48.452;11.494;2023-04-03T13:12:15;18.40;35.50
33564;DHT22;19894;48.452;11.494;2023-04-03T13:14:52;18.40;35.80
33564;DHT22;19894;48.452;11.494;2023-04-03T13:17:18;18.40;36.00
33564;DHT22;19894;48.452;11.494;2023-04-03T13:19:44;18.40;36.80
33564;DHT22;19894;48.452;11.494;2023-04-03T13:22:35;18.40;36.20
33564;DHT22;19894;48.452;11.494;2023-04-03T13:25:07;18.40;36.50
33564;DHT22;19894;48.452;11.494;2023-04-03T13:27:33;18.30;36.40
33564;DHT22;19894;48.452;11.494;2023-04-03T13:30:01;18.40;36.50
33564;DHT22;19894;48.452;11.494;2023-04-03T13:32:29;18.40;36.60
33564;DHT22;19894;48.452;11.494;2023-04-03T13:34:55;18.40;36.50
33564;DHT22;19894;48.452;11.494;2023-04-03T13:37:30;18.40;36.70
33564;DHT22;19894;48.452;11.494;2023-04-03T13:42:37;18.40;36.30
33564;DHT22;19894;48.452;11.494;2023-04-03T13:47:40;18.30;35.80
33564;DHT22;19894;48.452;11.494;2023-04-03T13:52:52;18.40;35.70
33564;DHT22;19894;48.452;11.494;2023-04-03T13:55:26;18.40;35.90
33564;DHT22;19894;48.452;11.494;2023-04-03T13:57:56;18.40;35.80
33564;DHT22;19894;48.452;11.494;2023-04-03T14:02:59;18.30;35.50
33564;DHT22;19894;48.452;11.494;2023-04-03T14:05:25;18.40;35.30
33564;DHT22;19894;48.452;11.494;2023-04-03T14:07:53;18.40;35.30
33564;DHT22;19894;48.452;11.494;2023-04-03T14:10:19;18.40;35.20
33564;DHT22;19894;48.452;11.494;2023-04-03T14:12:45;18.30;34.90
33564;DHT22;19894;48.452;11.494;2023-04-03T14:15:18;18.30;34.60
33564;DHT22;19894;48.452;11.494;2023-04-03T14:17:45;18.40;34.60
33564;DHT22;19894;48.452;11.494;2023-04-03T14:20:19;18.40;34.90
33564;DHT22;19894;48.452;11.494;2023-04-03T14:22:46;18.40;35.40
33564;DHT22;19894;48.452;11.494;2023-04-03T14:25:11;18.30;35.60
33564;DHT22;19894;48.452;11.494;2023-04-03T14:27:42;18.40;35.80
33564;DHT22;19894;48.452;11.494;2023-04-03T14:30:23;18.40;35.80
33564;DHT22;19894;48.452;11.494;2023-04-03T14:32:49;18.40;35.80
33564;DHT22;19894;48.452;11.494;2023-04-03T14:35:16;18.40;35.80
33564;DHT22;19894;48.452;11.494;2023-04-03T14:37:42;18.30;35.70
33564;DHT22;19894;48.452;11.494;2023-04-03T14:40:11;18.40;35.80
33564;DHT22;19894;48.452;11.494;2023-04-03T14:42:38;18.40;35.90
33564;DHT22;19894;48.452;11.494;2023-04-03T14:45:07;18.40;35.80
33564;DHT22;19894;48.452;11.494;2023-04-03T14:47:34;18.40;35.70
33564;DHT22;19894;48.452;11.494;2023-04-03T14:50:03;18.40;35.50
33564;DHT22;19894;48.452;11.494;2023-04-03T14:52:35;18.40;35.30
33564;DHT22;19894;48.452;11.494;2023-04-03T14:55:04;18.40;35.30
33564;DHT22;19894;48.452;11.494;2023-04-03T14:57:31;18.40;35.10
33564;DHT22;19894;48.452;11.494;2023-04-03T14:59:57;18.40;35.20
33564;DHT22;19894;48.452;11.494;2023-04-03T15:02:34;18.40;34.90
33564;DHT22;19894;48.452;11.494;2023-04-03T15:05:02;18.40;35.00
33564;DHT22;19894;48.452;11.494;2023-04-03T15:07:31;18.40;34.80
33564;DHT22;19894;48.452;11.494;2023-04-03T15:10:20;18.40;34.80
33564;DHT22;19894;48.452;11.494;2023-04-03T15:12:46;18.40;34.80
33564;DHT22;19894;48.452;11.494;2023-04-03T15:15:13;18.40;34.50
33564;DHT22;19894;48.452;11.494;2023-04-03T15:17:38;18.40;34.00
33564;DHT22;19894;48.452;11.494;2023-04-03T15:20:16;18.40;34.20
33564;DHT22;19894;48.452;11.494;2023-04-03T15:22:42;18.30;34.40
33564;DHT22;19894;48.452;11.494;2023-04-03T15:25:09;18.30;34.60
33564;DHT22;19894;48.452;11.494;2023-04-03T15:27:35;18.40;35.00
33564;DHT22;19894;48.452;11.494;2023-04-03T15:30:02;18.40;35.30
33564;DHT22;19894;48.452;11.494;2023-04-03T15:32:27;18.40;35.80
33564;DHT22;19894;48.452;11.494;2023-04-03T15:34:53;18.40;35.20
33564;DHT22;19894;48.452;11.494;2023-04-03T15:37:19;18.40;35.30
33564;DHT22;19894;48.452;11.494;2023-04-03T15:39:45;18.40;35.30
33564;DHT22;19894;48.452;11.494;2023-04-03T15:42:11;18.40;35.40
33564;DHT22;19894;48.452;11.494;2023-04-03T15:44:37;18.40;35.40
33564;DHT22;19894;48.452;11.494;2023-04-03T15:47:03;18.40;35.40
33564;DHT22;19894;48.452;11.494;2023-04-03T15:49:30;18.30;35.00
33564;DHT22;19894;48.452;11.494;2023-04-03T15:51:58;18.30;35.00
33564;DHT22;19894;48.452;11.494;2023-04-03T15:54:24;18.40;34.80
33564;DHT22;19894;48.452;11.494;2023-04-03T15:56:50;18.40;34.90
33564;DHT22;19894;48.452;11.494;2023-04-03T15:59:16;18.40;34.80
33564;DHT22;19894;48.452;11.494;2023-04-03T16:01:42;18.40;34.60
33564;DHT22;19894;48.452;11.494;2023-04-03T16:04:08;18.30;34.60
33564;DHT22;19894;48.452;11.494;2023-04-03T16:06:35;18.30;34.60
33564;DHT22;19894;48.452;11.494;2023-04-03T16:09:01;18.40;34.80
33564;DHT22;19894;48.452;11.494;2023-04-03T16:11:27;18.40;34.50
33564;DHT22;19894;48.452;11.494;2023-04-03T16:13:53;18.40;34.50
33564;DHT22;19894;48.452;11.494;2023-04-03T16:16:20;18.40;34.20
33564;DHT22;19894;48.452;11.494;2023-04-03T16:18:46;18.30;34.00
33564;DHT22;19894;48.452;11.494;2023-04-03T16:21:13;18.40;33.40
33564;DHT22;19894;48.452;11.494;2023-04-03T16:23:40;18.30;33.80
33564;DHT22;19894;48.452;11.494;2023-04-03T16:26:06;18.30;34.00
33564;DHT22;19894;48.452;11.494;2023-04-03T16:28:31;18.40;34.60
33564;DHT22;19894;48.452;11.494;2023-04-03T16:30:57;18.40;34.80
33564;DHT22;19894;48.452;11.494;2023-04-03T16:33:23;18.40;34.90
33564;DHT22;19894;48.452;11.494;2023-04-03T16:35:50;18.30;34.80
33564;DHT22;19894;48.452;11.494;2023-04-03T16:38:17;18.30;34.70
33564;DHT22;19894;48.452;11.494;2023-04-03T16:40:44;18.40;34.70
33564;DHT22;19894;48.452;11.494;2023-04-03T16:43:10;18.40;34.80
33564;DHT22;19894;48.452;11.494;2023-04-03T16:45:35;18.40;35.00
33564;DHT22;19894;48.452;11.494;2023-04-03T16:48:01;18.40;34.80
33564;DHT22;19894;48.452;11.494;2023-04-03T16:50:27;18.40;34.70
33564;DHT22;19894;48.452;11.494;2023-04-03T16:52:52;18.40;34.50
33564;DHT22;19894;48.452;11.494;2023-04-03T16:55:18;18.40;34.40
33564;DHT22;19894;48.452;11.494;2023-04-03T16:57:44;18.40;34.30
33564;DHT22;19894;48.452;11.494;2023-04-03T17:00:10;18.30;34.70
33564;DHT22;19894;48.452;11.494;2023-04-03T17:02:35;18.30;34.10
33564;DHT22;19894;48.452;11.494;2023-04-03T17:05:01;18.30;34.10
33564;DHT22;19894;48.452;11.494;2023-04-03T17:07:27;18.40;34.00
33564;DHT22;19894;48.452;11.494;2023-04-03T17:09:52;18.40;34.00
33564;DHT22;19894;48.452;11.494;2023-04-03T17:12:19;18.30;33.70
33564;DHT22;19894;48.452;11.494;2023-04-03T17:14:45;18.30;33.70
33564;DHT22;19894;48.452;11.494;2023-04-03T17:17:13;18.40;33.90
33564;DHT22;19894;48.452;11.494;2023-04-03T17:19:39;18.30;33.60
33564;DHT22;19894;48.452;11.494;2023-04-03T17:22:07;18.40;33.60
33564;DHT22;19894;48.452;11.494;2023-04-03T17:24:33;18.30;33.90
33564;DHT22;19894;48.452;11.494;2023-04-03T17:27:00;18.30;33.80
33564;DHT22;19894;48.452;11.494;2023-04-03T17:29:25;18.40;34.20
33564;DHT22;19894;48.452;11.494;2023-04-03T17:31:51;18.40;34.20